sensor_id;sensor_type;location;lat;lon;timestamp;P1;durP1;ratioP1;P2;durP2;ratioP2
65665;SDS011;52365;47.464;18.976;2022-11-24T00:00:12;20.02;;;12.77;;
65665;SDS011;52365;47.464;18.976;2022-11-24T00:00:48;20.88;;;13.27;;
65665;SDS011;52365;47.464;18.976;2022-11-24T00:01:33;19.27;;;12.43;;
65665;SDS011;52365;47.464;18.976;2022-11-24T00:02:09;22.85;;;13.13;;
65665;SDS011;52365;47.464;18.976;2022-11-24T00:02:45;21.35;;;13.40;;
65665;SDS011;52365;47.464;18.976;2022-11-24T00:03:21;21.55;;;13.48;;
65665;SDS011;52365;47.464;18.976;2022-11-24T00:03:58;20.62;;;13.85;;
65665;SDS011;52365;47.464;18.976;2022-11-24T00:04:36;22.27;;;13.57;;
65665;SDS011;52365;47.464;18.976;2022-11-24T00:05:12;21.08;;;13.45;;
65665;SDS011;52365;47.464;18.976;2022-11-24T00:05:48;22.98;;;13.85;;
65665;SDS011;52365;47.464;18.976;2022-11-24T00:06:24;21.27;;;13.23;;
65665;SDS011;52365;47.464;18.976;2022-11-24T00:07:01;21.08;;;13.27;;
65665;SDS011;52365;47.464;18.976;2022-11-24T00:07:38;19.52;;;12.65;;
65665;SDS011;52365;47.464;18.976;2022-11-24T00:08:14;23.08;;;13.00;;
65665;SDS011;52365;47.464;18.976;2022-11-24T00:08:50;19.77;;;12.40;;
65665;SDS011;52365;47.464;18.976;2022-11-24T00:09:26;20.45;;;12.43;;
65665;SDS011;52365;47.464;18.976;2022-11-24T00:10:02;19.52;;;12.40;;
65665;SDS011;52365;47.464;18.976;2022-11-24T00:10:39;18.58;;;12.23;;
65665;SDS011;52365;47.464;18.976;2022-11-24T00:11:16;18.42;;;12.13;;
65665;SDS011;52365;47.464;18.976;2022-11-24T00:11:54;21.40;;;12.45;;
65665;SDS011;52365;47.464;18.976;2022-11-24T00:12:30;19.30;;;12.60;;
65665;SDS011;52365;47.464;18.976;2022-11-24T00:13:06;22.17;;;12.25;;
65665;SDS011;52365;47.464;18.976;2022-11-24T00:13:42;18.65;;;11.80;;
65665;SDS011;52365;47.464;18.976;2022-11-24T00:14:18;18.75;;;12.20;;
65665;SDS011;52365;47.464;18.976;2022-11-24T00:14:54;20.40;;;12.20;;
65665;SDS011;52365;47.464;18.976;2022-11-24T00:15:30;18.73;;;11.85;;
65665;SDS011;52365;47.464;18.976;2022-11-24T00:16:07;17.85;;;11.80;;
65665;SDS011;52365;47.464;18.976;2022-11-24T00:16:49;22.15;;;12.57;;
65665;SDS011;52365;47.464;18.976;2022-11-24T00:17:25;19.58;;;11.88;;
65665;SDS011;52365;47.464;18.976;2022-11-24T00:18:01;19.00;;;11.82;;
65665;SDS011;52365;47.464;18.976;2022-11-24T00:18:38;20.90;;;12.65;;
65665;SDS011;52365;47.464;18.976;2022-11-24T00:19:15;20.42;;;12.57;;
65665;SDS011;52365;47.464;18.976;2022-11-24T00:19:51;21.10;;;12.73;;
65665;SDS011;52365;47.464;18.976;2022-11-24T00:20:27;20.92;;;12.88;;
65665;SDS011;52365;47.464;18.976;2022-11-24T00:21:03;20.27;;;12.05;;
65665;SDS011;52365;47.464;18.976;2022-11-24T00:21:39;21.02;;;13.23;;
65665;SDS011;52365;47.464;18.976;2022-11-24T00:22:15;20.75;;;12.48;;
65665;SDS011;52365;47.464;18.976;2022-11-24T00:22:51;20.75;;;12.60;;
65665;SDS011;52365;47.464;18.976;2022-11-24T00:23:27;22.73;;;13.25;;
65665;SDS011;52365;47.464;18.976;2022-11-24T00:24:03;24.42;;;14.13;;
65665;SDS011;52365;47.464;18.976;2022-11-24T00:24:39;21.20;;;13.32;;
65665;SDS011;52365;47.464;18.976;2022-11-24T00:25:15;22.20;;;13.10;;
65665;SDS011;52365;47.464;18.976;2022-11-24T00:25:51;23.05;;;12.93;;
65665;SDS011;52365;47.464;18.976;2022-11-24T00:26:28;21.37;;;13.30;;
65665;SDS011;52365;47.464;18.976;2022-11-24T00:27:09;22.27;;;13.25;;
65665;SDS011;52365;47.464;18.976;2022-11-24T00:27:45;23.52;;;13.40;;
65665;SDS011;52365;47.464;18.976;2022-11-24T00:28:21;23.87;;;13.88;;
65665;SDS011;52365;47.464;18.976;2022-11-24T00:29:00;22.45;;;12.95;;
65665;SDS011;52365;47.464;18.976;2022-11-24T00:29:37;24.58;;;14.02;;
65665;SDS011;52365;47.464;18.976;2022-11-24T00:30:13;24.27;;;14.35;;
65665;SDS011;52365;47.464;18.976;2022-11-24T00:30:50;25.08;;;14.38;;
65665;SDS011;52365;47.464;18.976;2022-11-24T00:31:30;23.33;;;13.60;;
65665;SDS011;52365;47.464;18.976;2022-11-24T00:32:27;23.12;;;13.60;;
65665;SDS011;52365;47.464;18.976;2022-11-24T00:33:04;23.90;;;14.05;;
65665;SDS011;52365;47.464;18.976;2022-11-24T00:33:40;25.42;;;14.48;;
65665;SDS011;52365;47.464;18.976;2022-11-24T00:34:16;26.37;;;15.23;;
65665;SDS011;52365;47.464;18.976;2022-11-24T00:34:52;26.08;;;15.35;;
65665;SDS011;52365;47.464;18.976;2022-11-24T00:35:28;27.15;;;14.82;;
65665;SDS011;52365;47.464;18.976;2022-11-24T00:36:04;29.00;;;15.65;;
65665;SDS011;52365;47.464;18.976;2022-11-24T00:36:40;24.20;;;14.60;;
65665;SDS011;52365;47.464;18.976;2022-11-24T00:37:16;26.40;;;15.63;;
65665;SDS011;52365;47.464;18.976;2022-11-24T00:37:54;25.77;;;15.32;;
65665;SDS011;52365;47.464;18.976;2022-11-24T00:38:30;26.40;;;15.00;;
65665;SDS011;52365;47.464;18.976;2022-11-24T00:39:08;26.20;;;15.18;;
65665;SDS011;52365;47.464;18.976;2022-11-24T00:39:46;28.12;;;15.90;;
65665;SDS011;52365;47.464;18.976;2022-11-24T00:40:22;27.25;;;16.08;;
65665;SDS011;52365;47.464;18.976;2022-11-24T00:40:58;27.35;;;15.35;;
65665;SDS011;52365;47.464;18.976;2022-11-24T00:41:34;28.67;;;16.17;;
65665;SDS011;52365;47.464;18.976;2022-11-24T00:42:11;27.60;;;16.20;;
65665;SDS011;52365;47.464;18.976;2022-11-24T00:42:48;29.27;;;16.27;;
65665;SDS011;52365;47.464;18.976;2022-11-24T00:43:24;29.48;;;15.57;;
65665;SDS011;52365;47.464;18.976;2022-11-24T00:44:01;30.83;;;16.70;;
65665;SDS011;52365;47.464;18.976;2022-11-24T00:44:37;29.60;;;16.90;;
65665;SDS011;52365;47.464;18.976;2022-11-24T00:45:13;30.23;;;16.90;;
65665;SDS011;52365;47.464;18.976;2022-11-24T00:45:49;30.42;;;16.92;;
65665;SDS011;52365;47.464;18.976;2022-11-24T00:46:25;31.83;;;17.23;;
65665;SDS011;52365;47.464;18.976;2022-11-24T00:47:01;30.25;;;16.77;;
65665;SDS011;52365;47.464;18.976;2022-11-24T00:47:37;32.20;;;17.17;;
65665;SDS011;52365;47.464;18.976;2022-11-24T00:48:13;30.08;;;17.00;;
65665;SDS011;52365;47.464;18.976;2022-11-24T00:48:50;32.35;;;17.00;;
65665;SDS011;52365;47.464;18.976;2022-11-24T00:49:26;32.53;;;17.52;;
65665;SDS011;52365;47.464;18.976;2022-11-24T00:50:02;31.92;;;17.80;;
65665;SDS011;52365;47.464;18.976;2022-11-24T00:50:39;31.20;;;16.87;;
65665;SDS011;52365;47.464;18.976;2022-11-24T00:51:15;30.90;;;17.40;;
65665;SDS011;52365;47.464;18.976;2022-11-24T00:51:52;33.47;;;17.70;;
65665;SDS011;52365;47.464;18.976;2022-11-24T00:52:28;30.10;;;17.58;;
65665;SDS011;52365;47.464;18.976;2022-11-24T00:53:04;32.22;;;17.60;;
65665;SDS011;52365;47.464;18.976;2022-11-24T00:53:40;32.45;;;18.10;;
65665;SDS011;52365;47.464;18.976;2022-11-24T00:54:17;31.92;;;17.67;;
65665;SDS011;52365;47.464;18.976;2022-11-24T00:54:53;32.63;;;17.02;;
65665;SDS011;52365;47.464;18.976;2022-11-24T00:55:29;33.35;;;18.12;;
65665;SDS011;52365;47.464;18.976;2022-11-24T00:56:05;32.00;;;17.52;;
65665;SDS011;52365;47.464;18.976;2022-11-24T00:56:42;30.73;;;16.70;;
65665;SDS011;52365;47.464;18.976;2022-11-24T00:57:18;30.95;;;17.52;;
65665;SDS011;52365;47.464;18.976;2022-11-24T00:57:54;30.77;;;17.73;;
65665;SDS011;52365;47.464;18.976;2022-11-24T00:58:30;32.00;;;17.60;;
65665;SDS011;52365;47.464;18.976;2022-11-24T00:59:07;31.85;;;17.17;;
65665;SDS011;52365;47.464;18.976;2022-11-24T00:59:43;31.77;;;17.30;;
65665;SDS011;52365;47.464;18.976;2022-11-24T01:00:19;29.70;;;16.77;;
65665;SDS011;52365;47.464;18.976;2022-11-24T01:01:00;30.20;;;17.12;;
65665;SDS011;52365;47.464;18.976;2022-11-24T01:01:38;32.53;;;17.25;;
65665;SDS011;52365;47.464;18.976;2022-11-24T01:02:14;35.75;;;18.92;;
65665;SDS011;52365;47.464;18.976;2022-11-24T01:02:50;33.13;;;17.45;;
65665;SDS011;52365;47.464;18.976;2022-11-24T01:03:27;31.15;;;17.90;;
65665;SDS011;52365;47.464;18.976;2022-11-24T01:04:03;31.70;;;17.33;;
65665;SDS011;52365;47.464;18.976;2022-11-24T01:04:40;32.90;;;17.60;;
65665;SDS011;52365;47.464;18.976;2022-11-24T01:05:16;34.70;;;18.80;;
65665;SDS011;52365;47.464;18.976;2022-11-24T01:05:52;35.13;;;18.65;;
65665;SDS011;52365;47.464;18.976;2022-11-24T01:06:28;34.28;;;18.50;;
65665;SDS011;52365;47.464;18.976;2022-11-24T01:07:05;34.45;;;17.95;;
65665;SDS011;52365;47.464;18.976;2022-11-24T01:07:41;34.78;;;19.33;;
65665;SDS011;52365;47.464;18.976;2022-11-24T01:08:17;31.87;;;17.75;;
65665;SDS011;52365;47.464;18.976;2022-11-24T01:08:53;34.13;;;18.60;;
65665;SDS011;52365;47.464;18.976;2022-11-24T01:09:30;34.40;;;18.17;;
65665;SDS011;52365;47.464;18.976;2022-11-24T01:10:06;34.17;;;18.25;;
65665;SDS011;52365;47.464;18.976;2022-11-24T01:10:43;31.62;;;17.20;;
65665;SDS011;52365;47.464;18.976;2022-11-24T01:11:20;32.97;;;18.33;;
65665;SDS011;52365;47.464;18.976;2022-11-24T01:11:58;31.45;;;17.67;;
65665;SDS011;52365;47.464;18.976;2022-11-24T01:12:38;33.53;;;18.37;;
65665;SDS011;52365;47.464;18.976;2022-11-24T01:13:14;33.92;;;18.48;;
65665;SDS011;52365;47.464;18.976;2022-11-24T01:13:51;32.27;;;17.73;;
65665;SDS011;52365;47.464;18.976;2022-11-24T01:14:29;33.58;;;18.35;;
65665;SDS011;52365;47.464;18.976;2022-11-24T01:15:07;32.58;;;18.23;;
65665;SDS011;52365;47.464;18.976;2022-11-24T01:15:43;33.08;;;18.40;;
65665;SDS011;52365;47.464;18.976;2022-11-24T01:16:29;34.90;;;18.85;;
65665;SDS011;52365;47.464;18.976;2022-11-24T01:17:08;34.10;;;18.40;;
65665;SDS011;52365;47.464;18.976;2022-11-24T01:17:44;36.67;;;18.90;;
65665;SDS011;52365;47.464;18.976;2022-11-24T01:18:20;33.22;;;18.15;;
65665;SDS011;52365;47.464;18.976;2022-11-24T01:18:56;35.38;;;18.25;;
65665;SDS011;52365;47.464;18.976;2022-11-24T01:19:32;32.20;;;18.02;;
65665;SDS011;52365;47.464;18.976;2022-11-24T01:20:09;32.80;;;18.15;;
65665;SDS011;52365;47.464;18.976;2022-11-24T01:20:45;32.47;;;17.92;;
65665;SDS011;52365;47.464;18.976;2022-11-24T01:21:21;35.57;;;18.43;;
65665;SDS011;52365;47.464;18.976;2022-11-24T01:21:57;32.63;;;18.35;;
65665;SDS011;52365;47.464;18.976;2022-11-24T01:22:33;35.28;;;18.75;;
65665;SDS011;52365;47.464;18.976;2022-11-24T01:23:09;35.78;;;18.48;;
65665;SDS011;52365;47.464;18.976;2022-11-24T01:23:45;33.50;;;17.87;;
65665;SDS011;52365;47.464;18.976;2022-11-24T01:24:21;34.08;;;18.35;;
65665;SDS011;52365;47.464;18.976;2022-11-24T01:24:57;33.65;;;18.15;;
65665;SDS011;52365;47.464;18.976;2022-11-24T01:25:33;33.80;;;18.42;;
65665;SDS011;52365;47.464;18.976;2022-11-24T01:26:11;34.35;;;17.80;;
65665;SDS011;52365;47.464;18.976;2022-11-24T01:26:49;34.60;;;18.30;;
65665;SDS011;52365;47.464;18.976;2022-11-24T01:27:25;34.53;;;17.83;;
65665;SDS011;52365;47.464;18.976;2022-11-24T01:28:01;33.28;;;17.98;;
65665;SDS011;52365;47.464;18.976;2022-11-24T01:28:37;33.00;;;18.02;;
65665;SDS011;52365;47.464;18.976;2022-11-24T01:29:13;32.28;;;17.83;;
65665;SDS011;52365;47.464;18.976;2022-11-24T01:29:49;30.88;;;17.30;;
65665;SDS011;52365;47.464;18.976;2022-11-24T01:30:25;33.97;;;18.75;;
65665;SDS011;52365;47.464;18.976;2022-11-24T01:31:03;32.90;;;17.55;;
65665;SDS011;52365;47.464;18.976;2022-11-24T01:31:41;33.55;;;18.58;;
65665;SDS011;52365;47.464;18.976;2022-11-24T01:32:17;34.00;;;18.65;;
65665;SDS011;52365;47.464;18.976;2022-11-24T01:32:53;36.65;;;19.12;;
65665;SDS011;52365;47.464;18.976;2022-11-24T01:33:29;35.90;;;19.02;;
65665;SDS011;52365;47.464;18.976;2022-11-24T01:34:06;35.63;;;19.37;;
65665;SDS011;52365;47.464;18.976;2022-11-24T01:34:42;33.70;;;18.95;;
65665;SDS011;52365;47.464;18.976;2022-11-24T01:35:18;36.63;;;19.58;;
65665;SDS011;52365;47.464;18.976;2022-11-24T01:35:54;37.03;;;20.02;;
65665;SDS011;52365;47.464;18.976;2022-11-24T01:36:32;36.80;;;19.65;;
65665;SDS011;52365;47.464;18.976;2022-11-24T01:37:08;35.03;;;19.23;;
65665;SDS011;52365;47.464;18.976;2022-11-24T01:37:45;35.67;;;19.90;;
65665;SDS011;52365;47.464;18.976;2022-11-24T01:38:21;35.60;;;20.15;;
65665;SDS011;52365;47.464;18.976;2022-11-24T01:38:57;39.90;;;20.60;;
65665;SDS011;52365;47.464;18.976;2022-11-24T01:39:33;37.95;;;20.35;;
65665;SDS011;52365;47.464;18.976;2022-11-24T01:40:09;37.22;;;19.77;;
65665;SDS011;52365;47.464;18.976;2022-11-24T01:40:45;37.17;;;20.35;;
65665;SDS011;52365;47.464;18.976;2022-11-24T01:41:23;37.95;;;20.00;;
65665;SDS011;52365;47.464;18.976;2022-11-24T01:42:00;35.80;;;20.02;;
65665;SDS011;52365;47.464;18.976;2022-11-24T01:42:45;36.80;;;20.02;;
65665;SDS011;52365;47.464;18.976;2022-11-24T01:43:23;36.65;;;20.27;;
65665;SDS011;52365;47.464;18.976;2022-11-24T01:43:59;37.70;;;21.30;;
65665;SDS011;52365;47.464;18.976;2022-11-24T01:44:35;37.92;;;21.15;;
65665;SDS011;52365;47.464;18.976;2022-11-24T01:48:20;40.28;;;22.00;;
65665;SDS011;52365;47.464;18.976;2022-11-24T01:50:21;41.42;;;22.87;;
65665;SDS011;52365;47.464;18.976;2022-11-24T01:51:02;41.92;;;22.98;;
65665;SDS011;52365;47.464;18.976;2022-11-24T01:51:59;41.60;;;22.87;;
65665;SDS011;52365;47.464;18.976;2022-11-24T01:52:47;41.67;;;23.33;;
65665;SDS011;52365;47.464;18.976;2022-11-24T01:53:27;40.83;;;22.58;;
65665;SDS011;52365;47.464;18.976;2022-11-24T01:54:23;41.47;;;23.05;;
65665;SDS011;52365;47.464;18.976;2022-11-24T01:55:16;38.72;;;21.87;;
65665;SDS011;52365;47.464;18.976;2022-11-24T01:55:56;41.85;;;22.52;;
65665;SDS011;52365;47.464;18.976;2022-11-24T01:56:32;39.50;;;22.55;;
65665;SDS011;52365;47.464;18.976;2022-11-24T01:57:20;41.78;;;23.40;;
65665;SDS011;52365;47.464;18.976;2022-11-24T01:58:11;40.50;;;23.87;;
65665;SDS011;52365;47.464;18.976;2022-11-24T01:58:50;42.97;;;22.90;;
65665;SDS011;52365;47.464;18.976;2022-11-24T01:59:30;40.72;;;22.62;;
65665;SDS011;52365;47.464;18.976;2022-11-24T02:00:09;39.20;;;22.60;;
65665;SDS011;52365;47.464;18.976;2022-11-24T02:00:47;40.65;;;22.15;;
65665;SDS011;52365;47.464;18.976;2022-11-24T02:01:24;39.28;;;21.90;;
65665;SDS011;52365;47.464;18.976;2022-11-24T02:02:02;38.22;;;22.10;;
65665;SDS011;52365;47.464;18.976;2022-11-24T02:02:38;39.70;;;22.55;;
65665;SDS011;52365;47.464;18.976;2022-11-24T02:03:17;38.80;;;21.92;;
65665;SDS011;52365;47.464;18.976;2022-11-24T02:03:58;38.35;;;21.98;;
65665;SDS011;52365;47.464;18.976;2022-11-24T02:04:37;37.60;;;21.70;;
65665;SDS011;52365;47.464;18.976;2022-11-24T02:05:16;35.20;;;21.17;;
65665;SDS011;52365;47.464;18.976;2022-11-24T02:05:59;36.95;;;21.45;;
65665;SDS011;52365;47.464;18.976;2022-11-24T02:06:39;38.42;;;22.58;;
65665;SDS011;52365;47.464;18.976;2022-11-24T02:07:21;38.28;;;21.42;;
65665;SDS011;52365;47.464;18.976;2022-11-24T02:07:58;38.33;;;23.02;;
65665;SDS011;52365;47.464;18.976;2022-11-24T02:10:24;39.08;;;23.02;;
65665;SDS011;52365;47.464;18.976;2022-11-24T02:11:01;40.90;;;23.35;;
65665;SDS011;52365;47.464;18.976;2022-11-24T02:11:39;42.17;;;23.38;;
65665;SDS011;52365;47.464;18.976;2022-11-24T02:12:17;38.65;;;22.62;;
65665;SDS011;52365;47.464;18.976;2022-11-24T02:12:53;39.00;;;22.48;;
65665;SDS011;52365;47.464;18.976;2022-11-24T02:13:33;37.63;;;22.50;;
65665;SDS011;52365;47.464;18.976;2022-11-24T02:14:12;37.80;;;22.27;;
65665;SDS011;52365;47.464;18.976;2022-11-24T02:14:51;37.75;;;22.40;;
65665;SDS011;52365;47.464;18.976;2022-11-24T02:15:28;37.90;;;22.00;;
65665;SDS011;52365;47.464;18.976;2022-11-24T02:16:05;38.40;;;21.67;;
65665;SDS011;52365;47.464;18.976;2022-11-24T02:16:47;40.60;;;23.33;;
65665;SDS011;52365;47.464;18.976;2022-11-24T02:17:24;39.20;;;22.83;;
65665;SDS011;52365;47.464;18.976;2022-11-24T02:18:00;39.10;;;22.87;;
65665;SDS011;52365;47.464;18.976;2022-11-24T02:18:37;39.22;;;22.90;;
65665;SDS011;52365;47.464;18.976;2022-11-24T02:19:50;38.78;;;22.55;;
65665;SDS011;52365;47.464;18.976;2022-11-24T02:20:22;39.05;;;22.35;;
65665;SDS011;52365;47.464;18.976;2022-11-24T02:20:58;40.53;;;23.08;;
65665;SDS011;52365;47.464;18.976;2022-11-24T02:21:35;41.75;;;23.50;;
65665;SDS011;52365;47.464;18.976;2022-11-24T02:23:28;43.70;;;23.77;;
65665;SDS011;52365;47.464;18.976;2022-11-24T02:24:01;42.60;;;23.48;;
65665;SDS011;52365;47.464;18.976;2022-11-24T02:24:49;41.05;;;23.83;;
65665;SDS011;52365;47.464;18.976;2022-11-24T02:27:00;39.17;;;22.48;;
65665;SDS011;52365;47.464;18.976;2022-11-24T02:27:36;40.72;;;23.52;;
65665;SDS011;52365;47.464;18.976;2022-11-24T02:28:14;38.97;;;22.05;;
65665;SDS011;52365;47.464;18.976;2022-11-24T02:28:53;41.13;;;22.62;;
65665;SDS011;52365;47.464;18.976;2022-11-24T02:29:30;38.70;;;22.65;;
65665;SDS011;52365;47.464;18.976;2022-11-24T02:30:06;38.75;;;22.80;;
65665;SDS011;52365;47.464;18.976;2022-11-24T02:30:42;38.92;;;22.42;;
65665;SDS011;52365;47.464;18.976;2022-11-24T02:31:19;42.35;;;23.10;;
65665;SDS011;52365;47.464;18.976;2022-11-24T02:31:56;42.33;;;23.27;;
65665;SDS011;52365;47.464;18.976;2022-11-24T02:32:37;39.60;;;22.70;;
65665;SDS011;52365;47.464;18.976;2022-11-24T02:33:15;42.15;;;24.27;;
65665;SDS011;52365;47.464;18.976;2022-11-24T02:33:52;40.80;;;23.33;;
65665;SDS011;52365;47.464;18.976;2022-11-24T02:34:30;42.28;;;22.90;;
65665;SDS011;52365;47.464;18.976;2022-11-24T02:35:06;42.65;;;23.55;;
65665;SDS011;52365;47.464;18.976;2022-11-24T02:35:44;42.45;;;23.58;;
65665;SDS011;52365;47.464;18.976;2022-11-24T02:36:20;41.40;;;23.67;;
65665;SDS011;52365;47.464;18.976;2022-11-24T02:36:56;46.17;;;24.67;;
65665;SDS011;52365;47.464;18.976;2022-11-24T02:37:32;46.67;;;25.23;;
65665;SDS011;52365;47.464;18.976;2022-11-24T02:38:11;45.55;;;24.55;;
65665;SDS011;52365;47.464;18.976;2022-11-24T02:38:48;45.67;;;25.37;;
65665;SDS011;52365;47.464;18.976;2022-11-24T02:39:24;46.58;;;25.30;;
65665;SDS011;52365;47.464;18.976;2022-11-24T02:40:00;48.35;;;25.55;;
65665;SDS011;52365;47.464;18.976;2022-11-24T02:40:36;47.20;;;25.67;;
65665;SDS011;52365;47.464;18.976;2022-11-24T02:41:13;51.80;;;26.90;;
65665;SDS011;52365;47.464;18.976;2022-11-24T02:41:53;50.55;;;26.23;;
65665;SDS011;52365;47.464;18.976;2022-11-24T02:42:34;49.70;;;26.87;;
65665;SDS011;52365;47.464;18.976;2022-11-24T02:43:16;48.97;;;26.23;;
65665;SDS011;52365;47.464;18.976;2022-11-24T02:43:58;50.60;;;26.85;;
65665;SDS011;52365;47.464;18.976;2022-11-24T02:44:41;51.10;;;26.52;;
65665;SDS011;52365;47.464;18.976;2022-11-24T02:45:23;50.30;;;26.95;;
65665;SDS011;52365;47.464;18.976;2022-11-24T02:46:00;47.30;;;26.12;;
65665;SDS011;52365;47.464;18.976;2022-11-24T02:46:36;51.58;;;27.42;;
65665;SDS011;52365;47.464;18.976;2022-11-24T02:47:12;50.53;;;27.30;;
65665;SDS011;52365;47.464;18.976;2022-11-24T02:47:48;57.08;;;28.77;;
65665;SDS011;52365;47.464;18.976;2022-11-24T02:48:24;54.15;;;28.80;;
65665;SDS011;52365;47.464;18.976;2022-11-24T02:49:00;57.83;;;29.48;;
65665;SDS011;52365;47.464;18.976;2022-11-24T02:49:37;57.58;;;29.45;;
65665;SDS011;52365;47.464;18.976;2022-11-24T02:50:13;62.92;;;30.73;;
65665;SDS011;52365;47.464;18.976;2022-11-24T02:50:49;63.55;;;31.52;;
65665;SDS011;52365;47.464;18.976;2022-11-24T02:51:25;62.50;;;31.00;;
65665;SDS011;52365;47.464;18.976;2022-11-24T02:52:03;63.28;;;31.37;;
65665;SDS011;52365;47.464;18.976;2022-11-24T02:52:39;65.32;;;32.55;;
65665;SDS011;52365;47.464;18.976;2022-11-24T02:53:15;64.47;;;32.70;;
65665;SDS011;52365;47.464;18.976;2022-11-24T02:53:51;67.57;;;33.33;;
65665;SDS011;52365;47.464;18.976;2022-11-24T02:54:27;65.70;;;32.55;;
65665;SDS011;52365;47.464;18.976;2022-11-24T02:55:03;68.90;;;34.53;;
65665;SDS011;52365;47.464;18.976;2022-11-24T02:55:40;68.32;;;34.67;;
65665;SDS011;52365;47.464;18.976;2022-11-24T02:56:16;68.70;;;34.47;;
65665;SDS011;52365;47.464;18.976;2022-11-24T02:56:52;72.50;;;34.75;;
65665;SDS011;52365;47.464;18.976;2022-11-24T02:57:29;71.78;;;35.70;;
65665;SDS011;52365;47.464;18.976;2022-11-24T02:58:05;74.12;;;35.28;;
65665;SDS011;52365;47.464;18.976;2022-11-24T02:58:41;73.68;;;35.53;;
65665;SDS011;52365;47.464;18.976;2022-11-24T02:59:17;75.00;;;35.95;;
65665;SDS011;52365;47.464;18.976;2022-11-24T02:59:53;72.43;;;35.78;;
65665;SDS011;52365;47.464;18.976;2022-11-24T03:00:29;75.70;;;35.60;;
65665;SDS011;52365;47.464;18.976;2022-11-24T03:01:06;74.22;;;35.72;;
65665;SDS011;52365;47.464;18.976;2022-11-24T03:01:42;76.90;;;36.67;;
65665;SDS011;52365;47.464;18.976;2022-11-24T03:02:18;78.43;;;36.70;;
65665;SDS011;52365;47.464;18.976;2022-11-24T03:02:54;74.40;;;35.65;;
65665;SDS011;52365;47.464;18.976;2022-11-24T03:03:30;78.32;;;36.78;;
65665;SDS011;52365;47.464;18.976;2022-11-24T03:04:06;76.40;;;36.80;;
65665;SDS011;52365;47.464;18.976;2022-11-24T03:04:42;76.57;;;37.25;;
65665;SDS011;52365;47.464;18.976;2022-11-24T03:05:19;74.32;;;36.85;;
65665;SDS011;52365;47.464;18.976;2022-11-24T03:05:55;72.90;;;35.30;;
65665;SDS011;52365;47.464;18.976;2022-11-24T03:06:31;74.18;;;36.95;;
65665;SDS011;52365;47.464;18.976;2022-11-24T03:07:07;73.53;;;35.55;;
65665;SDS011;52365;47.464;18.976;2022-11-24T03:07:44;71.95;;;35.63;;
65665;SDS011;52365;47.464;18.976;2022-11-24T03:08:20;76.07;;;36.67;;
65665;SDS011;52365;47.464;18.976;2022-11-24T03:08:56;70.57;;;34.95;;
65665;SDS011;52365;47.464;18.976;2022-11-24T03:09:32;69.55;;;34.92;;
65665;SDS011;52365;47.464;18.976;2022-11-24T03:10:08;69.70;;;34.50;;
65665;SDS011;52365;47.464;18.976;2022-11-24T03:10:44;71.93;;;35.33;;
65665;SDS011;52365;47.464;18.976;2022-11-24T03:11:20;72.78;;;35.28;;
65665;SDS011;52365;47.464;18.976;2022-11-24T03:11:56;70.93;;;35.60;;
65665;SDS011;52365;47.464;18.976;2022-11-24T03:12:32;72.00;;;35.10;;
65665;SDS011;52365;47.464;18.976;2022-11-24T03:13:08;75.50;;;35.58;;
65665;SDS011;52365;47.464;18.976;2022-11-24T03:13:45;73.40;;;35.72;;
65665;SDS011;52365;47.464;18.976;2022-11-24T03:14:21;74.35;;;36.25;;
65665;SDS011;52365;47.464;18.976;2022-11-24T03:14:57;73.28;;;35.72;;
65665;SDS011;52365;47.464;18.976;2022-11-24T03:15:33;72.85;;;35.85;;
65665;SDS011;52365;47.464;18.976;2022-11-24T03:16:10;76.25;;;36.42;;
65665;SDS011;52365;47.464;18.976;2022-11-24T03:16:46;72.43;;;36.17;;
65665;SDS011;52365;47.464;18.976;2022-11-24T03:17:22;73.43;;;36.42;;
65665;SDS011;52365;47.464;18.976;2022-11-24T03:17:58;75.20;;;36.85;;
65665;SDS011;52365;47.464;18.976;2022-11-24T03:18:34;73.80;;;36.38;;
65665;SDS011;52365;47.464;18.976;2022-11-24T03:19:10;75.37;;;36.55;;
65665;SDS011;52365;47.464;18.976;2022-11-24T03:19:47;76.15;;;36.83;;
65665;SDS011;52365;47.464;18.976;2022-11-24T03:20:23;72.95;;;37.00;;
65665;SDS011;52365;47.464;18.976;2022-11-24T03:20:59;74.95;;;37.35;;
65665;SDS011;52365;47.464;18.976;2022-11-24T03:21:35;73.80;;;37.05;;
65665;SDS011;52365;47.464;18.976;2022-11-24T03:22:12;76.78;;;37.42;;
65665;SDS011;52365;47.464;18.976;2022-11-24T03:22:48;71.28;;;35.40;;
65665;SDS011;52365;47.464;18.976;2022-11-24T03:23:25;71.62;;;36.20;;
65665;SDS011;52365;47.464;18.976;2022-11-24T03:24:01;72.80;;;36.75;;
65665;SDS011;52365;47.464;18.976;2022-11-24T03:24:37;68.57;;;35.53;;
65665;SDS011;52365;47.464;18.976;2022-11-24T03:25:13;71.03;;;36.70;;
65665;SDS011;52365;47.464;18.976;2022-11-24T03:25:49;76.22;;;37.47;;
65665;SDS011;52365;47.464;18.976;2022-11-24T03:26:25;70.32;;;35.38;;
65665;SDS011;52365;47.464;18.976;2022-11-24T03:27:02;72.40;;;37.08;;
65665;SDS011;52365;47.464;18.976;2022-11-24T03:27:38;72.93;;;36.92;;
65665;SDS011;52365;47.464;18.976;2022-11-24T03:28:14;70.32;;;36.22;;
65665;SDS011;52365;47.464;18.976;2022-11-24T03:28:54;72.95;;;36.20;;
65665;SDS011;52365;47.464;18.976;2022-11-24T03:29:30;68.37;;;36.22;;
65665;SDS011;52365;47.464;18.976;2022-11-24T03:30:07;74.18;;;38.30;;
65665;SDS011;52365;47.464;18.976;2022-11-24T03:30:46;72.10;;;37.30;;
65665;SDS011;52365;47.464;18.976;2022-11-24T03:31:23;73.55;;;37.78;;
65665;SDS011;52365;47.464;18.976;2022-11-24T03:31:59;77.03;;;37.50;;
65665;SDS011;52365;47.464;18.976;2022-11-24T03:32:36;73.35;;;38.03;;
65665;SDS011;52365;47.464;18.976;2022-11-24T03:33:12;73.22;;;37.75;;
65665;SDS011;52365;47.464;18.976;2022-11-24T03:33:48;79.05;;;38.53;;
65665;SDS011;52365;47.464;18.976;2022-11-24T03:34:24;76.18;;;38.15;;
65665;SDS011;52365;47.464;18.976;2022-11-24T03:35:00;74.18;;;37.75;;
65665;SDS011;52365;47.464;18.976;2022-11-24T03:35:36;80.00;;;39.03;;
65665;SDS011;52365;47.464;18.976;2022-11-24T03:36:12;76.55;;;38.15;;
65665;SDS011;52365;47.464;18.976;2022-11-24T03:36:48;75.30;;;38.03;;
65665;SDS011;52365;47.464;18.976;2022-11-24T03:37:25;74.65;;;37.92;;
65665;SDS011;52365;47.464;18.976;2022-11-24T03:38:01;74.55;;;37.72;;
65665;SDS011;52365;47.464;18.976;2022-11-24T03:38:37;74.85;;;38.35;;
65665;SDS011;52365;47.464;18.976;2022-11-24T03:39:13;71.78;;;37.50;;
65665;SDS011;52365;47.464;18.976;2022-11-24T03:39:49;75.10;;;38.08;;
65665;SDS011;52365;47.464;18.976;2022-11-24T03:40:25;77.22;;;38.63;;
65665;SDS011;52365;47.464;18.976;2022-11-24T03:41:01;74.90;;;38.55;;
65665;SDS011;52365;47.464;18.976;2022-11-24T03:41:38;71.82;;;37.80;;
65665;SDS011;52365;47.464;18.976;2022-11-24T03:42:14;74.28;;;37.92;;
65665;SDS011;52365;47.464;18.976;2022-11-24T03:42:50;71.32;;;36.80;;
65665;SDS011;52365;47.464;18.976;2022-11-24T03:43:26;70.37;;;36.78;;
65665;SDS011;52365;47.464;18.976;2022-11-24T03:44:02;71.72;;;36.90;;